Long Lake, NY

12:06 PM EST on January 19, 2017 (GMT -0500)
Adirondack Acres W2CJS | | Change Station

Elev 1650 ft 43.98 °N, 74.43 °W | Updated 6 seconds ago

Overcast
Overcast
33.5 °F
Feels Like 34 °F
N
1.0
Wind Variable Wind from SSW
Gusts 4.0 mph

Today
High -- | Low -- °F
--% Chance of Precip.
Yesterday
High -- | Low -- °F
Precip. -- in
Pressure 29.94 in
Visibility 1.5 miles
Clouds Mostly Cloudy 700 ft
Mostly Cloudy 1200 ft
Overcast 1800 ft
Windchill 34 °F
Dew Point 31 °F
Humidity 92%
Rainfall 0.04 in
Snow Depth Not available.
7:26 AM 4:50 PM
Waning Gibbous, 52% visible
SPECI KSLK 191700Z AUTO 26003KT 1 1/2SM -SN BR BKN007 BKN012 OVC018 01/M01 A2994 RMK AO2 P0000 T00061011
Pressure 29.94 in
Visibility 1.5 miles
Clouds Mostly Cloudy 700 ft
Mostly Cloudy 1200 ft
Overcast 1800 ft
Windchill 34 °F
Dew Point 31 °F
Humidity 92%
Rainfall 0.04 in
Snow Depth Not available.
7:26 AM 4:50 PM
Waning Gibbous, 52% visible
SPECI KSLK 191700Z AUTO 26003KT 1 1/2SM -SN BR BKN007 BKN012 OVC018 01/M01 A2994 RMK AO2 P0000 T00061011

Get Your Daily Forecast Email!

Thanks for signing up!

Be on the lookout for a verification email in your inbox.

You'll start receiving the daily forecast at 8 AM.

×

10-Day Weather Forecast

Almanac

Astronomy

Jan. 19, 2017 Rise Set
Actual Time
Civil Twilight
Nautical Twilight
Astronomical Twilight
Moon
Length of Visible Light
Length of Day
Tomorrow will be .
, % of the Moon is Illuminated

Today's Extremes

State Highs State Lows

Community

WunderPhotos

Upload Photos

1,962,540 photos uploaded!

WunderBlog® & News

Nearby

Air Quality

  Air Quality AQ Index Pollutant
Not available.

Snow Depth

Station Depth Elevation

Earthquake Activity

City Distance Mag. Time & Date
Minimum magnitude displayed is 2.5.

Coastal Water Temperatures

Place Temperature

Stations

Nearby Weather Stations

Station Location Temp. Windchill Dew Point Humidity Wind Precip. Elev Updated Type
                   

Watches & Warnings

There are currently no watches in effect.